Time;durP1;ratioP1;P1;durP2;ratioP2;P2;SDS_P1;SDS_P2;PMS_P1;PMS_P2;Temp;Humidity;BMP_temperature;BMP_pressure;BME280_temperature;BME280_humidity;BME280_pressure;Samples;Min_cycle;Max_cycle;Signal;HPM_P1;HPM_P2
2024/04/04 00:02:01;;;;;;;2.07;0.90;;;9.80;99.90;;;;;;5058845;28;20047;-86
2024/04/04 00:04:28;;;;;;;2.07;0.90;;;9.90;99.90;;;;;;5059626;28;20805;-87
2024/04/04 00:06:54;;;;;;;2.53;0.80;;;9.90;99.90;;;;;;5058198;28;21391;-85
2024/04/04 00:09:19;;;;;;;1.13;0.80;;;10.00;99.90;;;;;;5059077;28;20020;-85
2024/04/04 00:11:45;;;;;;;1.67;0.90;;;10.00;99.90;;;;;;5059571;28;20482;-87
2024/04/04 00:14:10;;;;;;;3.93;0.90;;;10.10;99.90;;;;;;5059016;28;20048;-86
2024/04/04 00:16:37;;;;;;;0.97;0.73;;;10.10;99.90;;;;;;5058945;28;20446;-85
2024/04/04 00:19:03;;;;;;;1.93;0.87;;;10.10;99.90;;;;;;5058437;28;20025;-86
2024/04/04 00:21:29;;;;;;;1.53;0.80;;;10.10;99.90;;;;;;5060181;28;20035;-84
2024/04/04 00:23:56;;;;;;;1.73;0.70;;;10.10;99.90;;;;;;5066599;28;20035;-85
2024/04/04 00:26:22;;;;;;;2.27;0.80;;;10.20;99.90;;;;;;5059554;28;20043;-85
2024/04/04 00:28:48;;;;;;;2.17;0.80;;;10.20;99.90;;;;;;5058934;28;20029;-85
2024/04/04 00:31:13;;;;;;;2.17;0.80;;;10.20;99.90;;;;;;5059010;28;20064;-86
2024/04/04 00:33:39;;;;;;;4.13;0.80;;;10.20;99.90;;;;;;5058278;28;20501;-85
2024/04/04 00:36:05;;;;;;;1.63;1.10;;;10.20;99.90;;;;;;5058969;28;20802;-85
2024/04/04 00:38:30;;;;;;;1.47;0.70;;;10.20;99.90;;;;;;5060073;28;20020;-86
2024/04/04 00:40:56;;;;;;;1.37;0.90;;;10.20;99.90;;;;;;5059427;28;20043;-86
2024/04/04 00:43:21;;;;;;;2.23;0.97;;;10.20;99.90;;;;;;5060081;28;20025;-85
2024/04/04 00:45:47;;;;;;;1.83;0.80;;;10.20;99.90;;;;;;5058338;28;20029;-86
2024/04/04 00:48:13;;;;;;;3.23;0.80;;;10.30;99.90;;;;;;5058114;28;20182;-86
2024/04/04 00:50:41;;;;;;;2.27;0.90;;;10.20;99.90;;;;;;5059328;28;20082;-86
2024/04/04 00:53:07;;;;;;;3.50;0.97;;;10.30;99.90;;;;;;5058389;28;20106;-85
2024/04/04 00:55:33;;;;;;;1.67;0.97;;;10.20;99.90;;;;;;5059639;28;20067;-85
2024/04/04 00:57:59;;;;;;;1.33;0.90;;;10.20;99.90;;;;;;5058701;28;20099;-85
2024/04/04 01:00:25;;;;;;;0.90;0.70;;;10.20;99.90;;;;;;5059761;28;20029;-87
2024/04/04 01:02:52;;;;;;;1.80;0.70;;;10.10;99.90;;;;;;5059471;28;20488;-85
2024/04/04 01:05:17;;;;;;;1.43;0.80;;;10.10;99.90;;;;;;5057069;28;20024;-88
2024/04/04 01:07:45;;;;;;;1.97;0.80;;;10.10;99.90;;;;;;5058187;28;20027;-86
2024/04/04 01:10:11;;;;;;;1.33;0.73;;;10.10;99.90;;;;;;5059399;28;20048;-86
2024/04/04 01:12:38;;;;;;;3.53;1.47;;;10.10;99.90;;;;;;5060980;28;20032;-86
2024/04/04 01:15:05;;;;;;;3.00;0.80;;;10.00;99.90;;;;;;5060227;28;20024;-85
2024/04/04 01:17:31;;;;;;;1.77;0.80;;;10.00;99.90;;;;;;5060798;28;20505;-87
2024/04/04 01:19:57;;;;;;;4.17;1.00;;;10.00;99.90;;;;;;5059834;28;20067;-85
2024/04/04 01:22:23;;;;;;;2.20;1.00;;;10.00;99.90;;;;;;5060307;28;20556;-85
2024/04/04 01:24:48;;;;;;;3.03;0.80;;;10.00;99.90;;;;;;5059502;28;20132;-85
2024/04/04 01:27:14;;;;;;;1.43;0.73;;;10.00;99.90;;;;;;5059297;28;20036;-86
2024/04/04 01:29:39;;;;;;;2.20;0.80;;;10.10;99.90;;;;;;5059535;28;20029;-88
2024/04/04 01:32:05;;;;;;;1.67;0.93;;;10.00;99.90;;;;;;5059425;28;20072;-85
2024/04/04 01:34:32;;;;;;;1.67;0.70;;;10.10;99.90;;;;;;5058307;28;20028;-85
2024/04/04 01:36:58;;;;;;;0.97;0.77;;;10.10;99.90;;;;;;5058227;28;20070;-85
2024/04/04 01:39:23;;;;;;;1.63;0.97;;;10.10;99.90;;;;;;5058787;28;20021;-85
2024/04/04 01:41:49;;;;;;;2.70;1.00;;;10.10;99.90;;;;;;5060642;28;20029;-86
2024/04/04 01:44:14;;;;;;;2.07;0.80;;;10.20;99.90;;;;;;5063418;28;20078;-85
2024/04/04 01:46:40;;;;;;;2.93;1.53;;;10.30;99.90;;;;;;5062934;28;20137;-85
2024/04/04 01:49:06;;;;;;;1.47;0.80;;;10.30;99.90;;;;;;5062691;28;20057;-85
2024/04/04 01:51:32;;;;;;;2.70;0.80;;;10.30;99.90;;;;;;5058970;28;20058;-86
2024/04/04 01:53:59;;;;;;;2.00;1.10;;;10.40;99.90;;;;;;5059058;28;20037;-86
2024/04/04 01:56:25;;;;;;;1.37;0.83;;;10.40;99.90;;;;;;5060748;28;20031;-85
2024/04/04 01:58:50;;;;;;;4.17;1.40;;;10.30;99.90;;;;;;5059237;28;20025;-85
2024/04/04 02:01:16;;;;;;;0.77;0.77;;;10.40;99.90;;;;;;5059549;28;20048;-86
2024/04/04 02:03:41;;;;;;;1.30;0.73;;;10.40;99.90;;;;;;5058993;28;20035;-85
2024/04/04 02:06:07;;;;;;;1.83;0.70;;;10.40;99.90;;;;;;5058814;28;20356;-85
2024/04/04 02:08:32;;;;;;;2.40;1.10;;;10.40;99.90;;;;;;5059331;28;20127;-85
2024/04/04 02:10:58;;;;;;;2.00;1.07;;;10.40;99.90;;;;;;5059588;28;20127;-86
2024/04/04 02:13:26;;;;;;;4.60;0.90;;;10.40;99.90;;;;;;5056091;28;20095;-85
2024/04/04 02:15:52;;;;;;;1.47;0.90;;;10.30;99.90;;;;;;5059353;28;20108;-85
2024/04/04 02:18:19;;;;;;;1.53;0.80;;;10.40;99.90;;;;;;5062381;28;20120;-85
2024/04/04 02:20:46;;;;;;;1.53;0.83;;;10.40;99.90;;;;;;5060199;28;20059;-85
2024/04/04 02:23:11;;;;;;;3.60;1.27;;;10.40;99.90;;;;;;5059019;28;20024;-86
2024/04/04 02:25:38;;;;;;;2.80;0.83;;;10.40;99.90;;;;;;5057755;28;20028;-86
2024/04/04 02:28:04;;;;;;;3.10;1.53;;;10.40;99.90;;;;;;5059066;28;20048;-85
2024/04/04 02:30:30;;;;;;;2.00;0.90;;;10.40;99.90;;;;;;5059085;28;20523;-86
2024/04/04 02:32:56;;;;;;;1.63;0.80;;;10.50;99.90;;;;;;5058426;28;20033;-86
2024/04/04 02:35:21;;;;;;;2.77;0.80;;;10.50;99.90;;;;;;5058161;28;20020;-85
2024/04/04 02:37:47;;;;;;;2.73;0.77;;;10.50;99.90;;;;;;5059378;28;20464;-85
2024/04/04 02:40:13;;;;;;;1.93;0.87;;;10.50;99.90;;;;;;5059887;28;20631;-86
2024/04/04 02:42:38;;;;;;;2.40;0.87;;;10.60;99.90;;;;;;5058574;28;20024;-85
2024/04/04 02:45:04;;;;;;;2.73;0.80;;;10.60;99.90;;;;;;5057765;28;20029;-89
2024/04/04 02:47:30;;;;;;;2.63;1.00;;;10.70;99.90;;;;;;5057907;28;20080;-86
2024/04/04 02:49:56;;;;;;;2.50;0.90;;;10.70;99.90;;;;;;5058579;28;20107;-85
2024/04/04 02:52:22;;;;;;;7.63;0.90;;;10.70;99.90;;;;;;5057707;28;20036;-86
2024/04/04 02:54:50;;;;;;;2.77;0.90;;;10.70;99.90;;;;;;5056959;28;20035;-85
2024/04/04 02:57:15;;;;;;;1.40;0.70;;;10.80;99.90;;;;;;5058544;28;20028;-85
2024/04/04 02:59:41;;;;;;;2.53;1.13;;;10.80;99.90;;;;;;5058498;28;20365;-86
2024/04/04 03:02:07;;;;;;;2.03;0.80;;;10.90;99.90;;;;;;5059807;28;20036;-84
2024/04/04 03:04:35;;;;;;;3.60;0.90;;;11.00;99.90;;;;;;5060882;28;20504;-85
2024/04/04 03:07:01;;;;;;;2.30;1.07;;;11.10;99.90;;;;;;5063822;28;20500;-86
2024/04/04 03:09:26;;;;;;;2.10;1.03;;;11.10;99.90;;;;;;5063933;28;20028;-85
2024/04/04 03:11:52;;;;;;;2.17;0.70;;;11.10;99.90;;;;;;5063313;28;20032;-85
2024/04/04 03:14:17;;;;;;;2.60;0.90;;;11.10;99.90;;;;;;5064099;28;20000;-85
2024/04/04 03:16:43;;;;;;;2.40;0.80;;;11.10;99.90;;;;;;5062818;28;20647;-84
2024/04/04 03:19:10;;;;;;;3.13;0.80;;;11.10;99.90;;;;;;5061545;28;20029;-86
2024/04/04 03:21:35;;;;;;;3.20;1.00;;;11.00;99.90;;;;;;5061561;28;20093;-85
2024/04/04 03:24:02;;;;;;;1.47;0.80;;;11.00;99.90;;;;;;5062325;28;20059;-85
2024/04/04 03:26:28;;;;;;;3.03;1.00;;;11.00;99.90;;;;;;5062518;28;20035;-85
2024/04/04 03:28:53;;;;;;;3.33;0.80;;;11.00;99.90;;;;;;5063588;28;20020;-85
2024/04/04 03:31:21;;;;;;;1.83;0.90;;;11.00;99.90;;;;;;5060751;28;20036;-85
2024/04/04 03:33:46;;;;;;;1.23;0.70;;;10.90;99.90;;;;;;5062074;28;20131;-86
2024/04/04 03:36:12;;;;;;;1.90;0.90;;;11.00;99.90;;;;;;5061801;28;20536;-85
2024/04/04 03:38:38;;;;;;;1.53;0.63;;;10.90;99.90;;;;;;5063023;28;20980;-85
2024/04/04 03:41:03;;;;;;;2.13;0.73;;;10.90;99.90;;;;;;5062710;28;20400;-85
2024/04/04 03:43:29;;;;;;;2.43;1.30;;;10.80;99.90;;;;;;5061605;28;20043;-87
2024/04/04 03:45:54;;;;;;;3.17;0.93;;;10.70;99.90;;;;;;5060982;28;20061;-85
2024/04/04 03:48:20;;;;;;;2.40;0.70;;;10.70;99.90;;;;;;5063038;28;20029;-86
2024/04/04 03:50:46;;;;;;;3.83;0.90;;;10.70;99.90;;;;;;5063348;28;20025;-86
2024/04/04 03:53:13;;;;;;;2.33;0.70;;;10.60;99.90;;;;;;5060958;28;20035;-85
2024/04/04 03:55:41;;;;;;;3.37;1.00;;;10.60;99.90;;;;;;5062244;28;20024;-85
2024/04/04 03:58:06;;;;;;;3.47;0.90;;;10.60;99.90;;;;;;5062558;28;20039;-86
2024/04/04 04:00:32;;;;;;;3.17;0.90;;;10.50;99.90;;;;;;5061912;28;20013;-85
2024/04/04 04:02:57;;;;;;;2.73;0.90;;;10.50;99.90;;;;;;5062695;28;20028;-85
2024/04/04 04:05:23;;;;;;;3.57;0.80;;;10.50;99.90;;;;;;5063272;28;20082;-86
2024/04/04 04:07:48;;;;;;;1.50;0.73;;;10.50;99.90;;;;;;5062613;28;20021;-85
2024/04/04 04:10:14;;;;;;;2.90;0.73;;;10.50;99.90;;;;;;5063854;28;20032;-85
2024/04/04 04:12:40;;;;;;;1.73;0.80;;;10.40;99.90;;;;;;5069166;28;20035;-85
2024/04/04 04:15:06;;;;;;;1.30;0.90;;;10.40;99.90;;;;;;5062199;28;20044;-85
2024/04/04 04:17:31;;;;;;;2.17;1.03;;;10.40;99.90;;;;;;5061357;28;20611;-86
2024/04/04 04:19:58;;;;;;;3.57;1.20;;;10.40;99.90;;;;;;5059908;28;20015;-86
2024/04/04 04:22:24;;;;;;;3.90;1.10;;;10.40;99.90;;;;;;5061282;28;20081;-86
2024/04/04 04:24:51;;;;;;;3.77;1.30;;;10.40;99.90;;;;;;5058499;28;20028;-85
2024/04/04 04:27:16;;;;;;;1.33;0.80;;;10.40;99.90;;;;;;5059501;28;20034;-86
2024/04/04 04:29:42;;;;;;;4.60;1.40;;;10.40;99.90;;;;;;5059055;28;20013;-85
2024/04/04 04:32:07;;;;;;;0.93;0.80;;;10.40;99.90;;;;;;5057564;28;20159;-86
2024/04/04 04:34:33;;;;;;;2.07;1.10;;;10.30;99.90;;;;;;5059298;28;20060;-85
2024/04/04 04:37:03;;;;;;;3.27;0.70;;;10.40;99.90;;;;;;5062069;28;20139;-85
2024/04/04 04:39:30;;;;;;;2.30;0.70;;;10.40;99.90;;;;;;5062814;28;20047;-86
2024/04/04 04:41:56;;;;;;;1.30;0.80;;;10.40;99.90;;;;;;5064126;28;20453;-86
2024/04/04 04:44:23;;;;;;;1.37;0.83;;;10.40;99.90;;;;;;5062468;28;20485;-87
2024/04/04 04:46:48;;;;;;;3.77;0.90;;;10.40;99.90;;;;;;5063496;28;20020;-86
2024/04/04 04:49:14;;;;;;;0.70;0.60;;;10.40;99.90;;;;;;5061207;28;20047;-85
2024/04/04 04:51:39;;;;;;;2.80;0.80;;;10.40;99.90;;;;;;5061939;28;20618;-86
2024/04/04 04:54:06;;;;;;;2.40;0.70;;;10.40;99.90;;;;;;5058639;28;20028;-86
2024/04/04 04:56:32;;;;;;;1.93;0.80;;;10.40;99.90;;;;;;5061611;28;20128;-87
2024/04/04 04:58:57;;;;;;;3.37;0.70;;;10.40;99.90;;;;;;5060423;28;20021;-86
2024/04/04 05:01:24;;;;;;;1.93;0.70;;;10.40;99.90;;;;;;5060117;28;20589;-86
2024/04/04 05:03:50;;;;;;;0.53;0.50;;;10.40;99.90;;;;;;5056258;28;20029;-86
2024/04/04 05:06:15;;;;;;;1.13;0.60;;;10.30;99.90;;;;;;5059048;28;20033;-86
2024/04/04 05:08:41;;;;;;;1.07;0.80;;;10.30;99.90;;;;;;5060609;28;20377;-86
2024/04/04 05:11:07;;;;;;;2.40;0.87;;;10.30;99.90;;;;;;5064682;28;20488;-86
2024/04/04 05:13:33;;;;;;;2.20;0.90;;;10.30;99.90;;;;;;5064200;28;20028;-87
2024/04/04 05:15:59;;;;;;;2.77;0.73;;;10.30;99.90;;;;;;5062917;28;20040;-86
2024/04/04 05:18:25;;;;;;;1.97;0.80;;;10.30;99.90;;;;;;5062240;28;20165;-86
2024/04/04 05:21:02;;;;;;;3.73;0.83;;;10.30;99.90;;;;;;5059608;28;20025;-87
2024/04/04 05:23:27;;;;;;;2.57;0.73;;;10.30;99.90;;;;;;5059433;28;20029;-85
2024/04/04 05:25:53;;;;;;;0.60;0.60;;;10.30;99.90;;;;;;5060992;28;20032;-86
2024/04/04 05:28:25;;;;;;;1.30;0.70;;;10.30;99.90;;;;;;5057806;28;20037;-87
2024/04/04 05:30:51;;;;;;;1.10;0.60;;;10.40;99.90;;;;;;5059465;28;20035;-86
2024/04/04 05:33:16;;;;;;;2.80;1.17;;;10.40;99.90;;;;;;5059204;28;20041;-87
2024/04/04 05:35:42;;;;;;;2.07;0.80;;;10.40;99.90;;;;;;5056450;28;21232;-86
2024/04/04 05:38:08;;;;;;;1.30;0.70;;;10.40;99.90;;;;;;5058599;28;20017;-85
2024/04/04 05:40:35;;;;;;;1.63;0.90;;;10.50;99.90;;;;;;5060755;28;20016;-86
2024/04/04 05:43:01;;;;;;;2.10;1.10;;;10.60;99.90;;;;;;5060352;28;20041;-86
2024/04/04 05:45:26;;;;;;;3.20;0.90;;;10.60;99.90;;;;;;5059245;28;20032;-86
2024/04/04 05:47:52;;;;;;;2.13;0.80;;;10.70;99.90;;;;;;5062708;28;20036;-86
2024/04/04 05:50:17;;;;;;;4.27;1.00;;;10.70;99.90;;;;;;5059099;28;20059;-86
2024/04/04 05:52:43;;;;;;;4.17;0.90;;;10.90;99.90;;;;;;5058826;28;20064;-88
2024/04/04 05:55:12;;;;;;;1.77;0.80;;;10.90;99.90;;;;;;5056132;28;20025;-89
2024/04/04 05:57:38;;;;;;;1.17;0.80;;;10.90;99.90;;;;;;5052104;28;20056;-88
2024/04/04 06:00:05;;;;;;;2.15;0.70;;;11.00;99.90;;;;;;5053779;28;20381;-87
2024/04/04 06:02:30;;;;;;;2.33;0.57;;;11.10;99.90;;;;;;5055277;28;20101;-88
2024/04/04 06:04:56;;;;;;;1.33;0.90;;;11.20;99.90;;;;;;5053186;28;20028;-87
2024/04/04 06:07:22;;;;;;;2.00;0.70;;;11.30;99.90;;;;;;5057252;28;20028;-84
2024/04/04 06:09:47;;;;;;;1.17;0.70;;;11.30;99.90;;;;;;5058276;28;20112;-87
2024/04/04 06:12:13;;;;;;;0.80;0.60;;;11.40;99.90;;;;;;5058101;28;20040;-87
2024/04/04 06:14:38;;;;;;;0.80;0.60;;;11.40;99.90;;;;;;5058801;28;20472;-85
2024/04/04 06:17:04;;;;;;;0.80;0.60;;;11.50;99.90;;;;;;5056956;28;20044;-87
2024/04/04 06:19:30;;;;;;;2.47;0.60;;;11.50;99.90;;;;;;5056279;28;21137;-87
2024/04/04 06:21:56;;;;;;;1.10;0.60;;;11.50;99.90;;;;;;5056604;28;20029;-85
2024/04/04 06:24:23;;;;;;;0.93;0.60;;;11.60;99.90;;;;;;5056392;28;20024;-86
2024/04/04 06:26:49;;;;;;;1.70;0.60;;;11.60;99.90;;;;;;5054163;28;20059;-88
2024/04/04 06:29:15;;;;;;;1.08;0.75;;;11.70;99.90;;;;;;5053606;28;20100;-86
2024/04/04 06:31:41;;;;;;;2.38;0.70;;;11.70;99.90;;;;;;5055749;28;20033;-85
2024/04/04 06:34:06;;;;;;;0.60;0.60;;;11.80;99.90;;;;;;5057143;28;20028;-84
2024/04/04 06:36:32;;;;;;;0.73;0.60;;;11.90;99.90;;;;;;5058861;28;20013;-84
2024/04/04 06:39:03;;;;;;;2.17;0.60;;;11.90;99.90;;;;;;5059986;28;20029;-85
2024/04/04 06:41:30;;;;;;;1.23;0.63;;;12.00;99.90;;;;;;5055269;28;21401;-86
2024/04/04 06:43:55;;;;;;;1.17;0.65;;;12.00;99.90;;;;;;5055674;28;20028;-83
2024/04/04 06:46:21;;;;;;;1.20;0.52;;;12.10;99.90;;;;;;5055030;28;20024;-82
2024/04/04 06:48:46;;;;;;;2.35;0.63;;;12.10;99.90;;;;;;5055442;28;20085;-86
2024/04/04 06:51:12;;;;;;;1.65;0.60;;;12.20;99.90;;;;;;5052885;28;20025;-86
2024/04/04 06:53:39;;;;;;;2.03;0.60;;;12.30;99.90;;;;;;5052941;28;20060;-86
2024/04/04 06:56:05;;;;;;;2.60;0.70;;;12.30;99.90;;;;;;5053387;28;20037;-86
2024/04/04 06:58:31;;;;;;;0.65;0.65;;;12.40;99.90;;;;;;5051817;28;20033;-86
2024/04/04 07:00:58;;;;;;;2.67;0.75;;;12.40;99.90;;;;;;5052892;28;20032;-86
2024/04/04 07:03:23;;;;;;;1.15;0.80;;;12.50;99.90;;;;;;5051705;28;20040;-86
2024/04/04 07:05:49;;;;;;;1.50;0.60;;;12.50;99.90;;;;;;5053496;28;20029;-86
2024/04/04 07:08:14;;;;;;;1.83;0.70;;;12.50;99.90;;;;;;5052278;28;20037;-86
2024/04/04 07:10:40;;;;;;;2.22;0.82;;;12.40;99.90;;;;;;5054054;28;20017;-86
2024/04/04 07:13:05;;;;;;;1.52;0.68;;;12.40;99.90;;;;;;5055881;28;20033;-86
2024/04/04 07:15:31;;;;;;;1.38;0.70;;;12.30;99.90;;;;;;5054400;28;20047;-85
2024/04/04 07:17:57;;;;;;;1.23;0.68;;;12.20;99.90;;;;;;5055775;28;20039;-85
2024/04/04 07:20:23;;;;;;;3.33;1.00;;;12.20;99.90;;;;;;5056541;28;20094;-86
2024/04/04 07:22:48;;;;;;;3.07;0.70;;;12.10;99.90;;;;;;5056637;28;20107;-86
2024/04/04 07:25:16;;;;;;;1.33;0.75;;;12.00;99.90;;;;;;5055590;28;20056;-85
2024/04/04 07:27:42;;;;;;;1.35;0.65;;;11.90;99.90;;;;;;5057192;28;20029;-87
2024/04/04 07:30:08;;;;;;;1.40;0.80;;;11.90;99.90;;;;;;5054042;28;20024;-86
2024/04/04 07:32:34;;;;;;;3.97;0.80;;;12.00;99.90;;;;;;5056249;28;20029;-85
2024/04/04 07:35:01;;;;;;;3.67;1.00;;;12.20;99.90;;;;;;5051767;28;20028;-85
2024/04/04 07:37:29;;;;;;;3.55;0.90;;;12.40;99.90;;;;;;5055259;28;20065;-86
2024/04/04 07:39:57;;;;;;;1.67;0.85;;;12.50;99.90;;;;;;5056476;28;20028;-87
2024/04/04 07:42:25;;;;;;;1.77;0.70;;;12.80;99.90;;;;;;5057340;28;20035;-86
2024/04/04 07:44:51;;;;;;;4.20;0.93;;;12.90;99.90;;;;;;5057239;28;20035;-85
2024/04/04 07:47:17;;;;;;;3.08;0.95;;;13.00;99.90;;;;;;5056481;28;20032;-85
2024/04/04 07:49:43;;;;;;;3.58;0.70;;;13.20;99.90;;;;;;5057798;28;20044;-85
2024/04/04 07:52:09;;;;;;;1.77;0.70;;;13.30;99.90;;;;;;5061142;28;20107;-85
2024/04/04 07:54:35;;;;;;;2.55;0.80;;;13.30;99.90;;;;;;5059052;28;20024;-87
2024/04/04 07:57:00;;;;;;;2.28;0.80;;;13.40;99.90;;;;;;5059040;28;20691;-85
2024/04/04 07:59:26;;;;;;;2.60;0.80;;;13.50;99.90;;;;;;5058259;28;20028;-83
2024/04/04 08:01:53;;;;;;;2.00;0.85;;;13.50;99.90;;;;;;5057597;28;20024;-86
2024/04/04 08:04:19;;;;;;;0.77;0.55;;;13.70;99.90;;;;;;5058506;28;21004;-86
2024/04/04 08:06:45;;;;;;;1.38;0.63;;;13.90;99.90;;;;;;5057998;28;20131;-85
2024/04/04 08:09:11;;;;;;;2.90;0.88;;;13.90;99.90;;;;;;5060005;28;20385;-86
2024/04/04 08:11:37;;;;;;;2.70;0.80;;;14.00;99.90;;;;;;5058874;28;20032;-87
2024/04/04 08:14:03;;;;;;;1.70;0.70;;;14.10;99.90;;;;;;5059149;28;20037;-86
2024/04/04 08:16:29;;;;;;;1.58;0.80;;;14.10;99.90;;;;;;5057496;28;20076;-86
2024/04/04 08:18:55;;;;;;;1.98;0.77;;;14.20;99.90;;;;;;5057589;28;21045;-86
2024/04/04 08:21:21;;;;;;;2.63;0.82;;;14.30;99.90;;;;;;5058640;28;20060;-84
2024/04/04 08:23:46;;;;;;;3.17;0.88;;;14.40;99.90;;;;;;5056551;28;20056;-84
2024/04/04 08:26:12;;;;;;;2.08;0.80;;;14.40;99.90;;;;;;5053953;28;20032;-83
2024/04/04 08:28:38;;;;;;;3.67;1.77;;;14.60;99.90;;;;;;5058842;28;20165;-84
2024/04/04 08:31:07;;;;;;;4.68;0.93;;;14.60;99.90;;;;;;5058771;28;20036;-85
2024/04/04 08:33:33;;;;;;;0.98;0.50;;;14.70;99.90;;;;;;5059645;28;20036;-85
2024/04/04 08:36:00;;;;;;;2.63;0.73;;;14.80;99.90;;;;;;5059351;28;20075;-84
2024/04/04 08:38:25;;;;;;;2.85;1.02;;;14.90;99.90;;;;;;5061019;28;20055;-85
2024/04/04 08:40:57;;;;;;;4.60;0.98;;;14.90;99.90;;;;;;5062739;28;20056;-84
2024/04/04 08:43:23;;;;;;;1.40;0.70;;;15.00;99.90;;;;;;5062867;28;20032;-84
2024/04/04 08:45:49;;;;;;;2.28;0.75;;;15.10;99.90;;;;;;5062095;28;20111;-84
2024/04/04 08:48:17;;;;;;;2.60;0.98;;;15.20;99.90;;;;;;5058914;28;20393;-85
2024/04/04 08:50:46;;;;;;;2.45;0.70;;;15.30;99.90;;;;;;5058516;28;20093;-84
2024/04/04 08:53:19;;;;;;;2.28;0.80;;;15.40;99.90;;;;;;5059600;28;20163;-85
2024/04/04 08:55:46;;;;;;;3.60;1.08;;;15.40;99.90;;;;;;5057667;28;20032;-85
2024/04/04 08:58:12;;;;;;;4.75;1.00;;;15.50;99.90;;;;;;5056904;28;20040;-84
2024/04/04 09:00:39;;;;;;;2.15;0.77;;;15.60;99.90;;;;;;5056500;28;20052;-84
2024/04/04 09:03:06;;;;;;;2.10;0.80;;;15.80;99.90;;;;;;5058650;28;20033;-84
2024/04/04 09:05:32;;;;;;;3.38;0.88;;;16.00;99.90;;;;;;5057641;28;20777;-84
2024/04/04 09:07:57;;;;;;;2.97;1.67;;;16.20;99.90;;;;;;5057716;28;20082;-85
2024/04/04 09:10:23;;;;;;;2.25;0.90;;;16.40;99.90;;;;;;5059872;28;20033;-85
2024/04/04 09:12:59;;;;;;;3.60;1.33;;;16.70;99.90;;;;;;5058933;28;20052;-84
2024/04/04 09:15:25;;;;;;;3.20;0.90;;;17.00;99.90;;;;;;5057441;28;20029;-85
2024/04/04 09:17:50;;;;;;;2.63;0.98;;;17.20;99.90;;;;;;5058355;28;21074;-85
2024/04/04 09:20:18;;;;;;;5.93;1.13;;;17.20;99.90;;;;;;5057826;28;20024;-85
2024/04/04 09:22:43;;;;;;;2.10;0.80;;;17.10;99.90;;;;;;5058624;28;20036;-85
2024/04/04 09:25:09;;;;;;;4.32;1.33;;;17.00;99.90;;;;;;5057327;28;20035;-85
2024/04/04 09:27:36;;;;;;;1.60;0.73;;;17.00;99.90;;;;;;5057859;28;20063;-85
2024/04/04 09:30:02;;;;;;;2.53;1.15;;;17.10;99.90;;;;;;5058711;28;20024;-85
2024/04/04 09:32:27;;;;;;;2.28;0.90;;;17.10;99.90;;;;;;5057929;28;20039;-85
2024/04/04 09:34:53;;;;;;;2.13;0.70;;;17.10;99.90;;;;;;5058482;28;20032;-88
2024/04/04 09:37:20;;;;;;;1.90;0.80;;;17.20;99.90;;;;;;5056460;28;20051;-84
2024/04/04 09:39:47;;;;;;;3.78;0.98;;;17.10;99.90;;;;;;5056298;28;20028;-85
2024/04/04 09:42:14;;;;;;;2.90;0.88;;;17.00;99.90;;;;;;5056547;28;20374;-84
2024/04/04 09:44:39;;;;;;;5.43;1.20;;;17.10;99.90;;;;;;5057273;28;20851;-84
2024/04/04 09:47:05;;;;;;;4.47;1.05;;;17.20;99.90;;;;;;5055066;28;20028;-84
2024/04/04 09:49:32;;;;;;;3.80;1.00;;;17.30;99.90;;;;;;5054967;28;20168;-85
2024/04/04 09:51:59;;;;;;;1.92;0.70;;;17.50;99.90;;;;;;5056182;28;20112;-85
2024/04/04 09:54:26;;;;;;;1.77;0.80;;;17.60;99.90;;;;;;5053626;28;20036;-83
2024/04/04 09:56:52;;;;;;;1.80;0.70;;;17.60;99.90;;;;;;5053790;28;20039;-84
2024/04/04 09:59:29;;;;;;;2.97;0.85;;;17.50;99.90;;;;;;5058592;28;20089;-84
2024/04/04 10:02:02;;;;;;;2.30;0.75;;;17.40;99.90;;;;;;5057470;28;20028;-85
2024/04/04 10:04:35;;;;;;;4.00;0.80;;;17.60;99.90;;;;;;5057894;28;20557;-84
2024/04/04 10:07:01;;;;;;;2.63;0.90;;;17.60;99.90;;;;;;5059117;28;20036;-86
2024/04/04 10:09:36;;;;;;;3.92;1.33;;;17.70;99.90;;;;;;5056890;28;20024;-85
2024/04/04 10:12:07;;;;;;;;;;;18.00;99.90;;;;;;5058682;28;20029;-84
2024/04/04 10:14:33;;;;;;;3.03;0.80;;;18.10;99.90;;;;;;5056349;28;19920;-85
2024/04/04 10:17:05;;;;;;;2.53;0.70;;;18.30;99.90;;;;;;5056840;28;20021;-85
2024/04/04 10:19:34;;;;;;;3.47;0.80;;;18.50;99.90;;;;;;5057841;28;20021;-85
2024/04/04 10:22:02;;;;;;;3.40;1.13;;;18.60;99.90;;;;;;5056886;28;20050;-85
2024/04/04 10:24:29;;;;;;;2.67;0.88;;;18.50;99.90;;;;;;5058838;28;20036;-85
2024/04/04 10:26:57;;;;;;;3.05;0.80;;;18.40;99.90;;;;;;5056847;28;21346;-85
2024/04/04 10:29:27;;;;;;;3.38;0.73;;;18.10;99.90;;;;;;5058039;28;20697;-86
2024/04/04 10:31:53;;;;;;;2.08;0.80;;;18.00;99.90;;;;;;5057394;28;20029;-84
2024/04/04 10:34:20;;;;;;;5.25;1.08;;;18.00;99.90;;;;;;5058281;28;20143;-85
2024/04/04 10:36:46;;;;;;;1.92;0.70;;;18.00;99.90;;;;;;5055836;28;20121;-85
2024/04/04 10:39:13;;;;;;;3.85;1.00;;;18.10;99.90;;;;;;5057268;28;20035;-85
2024/04/04 10:41:48;;;;;;;2.40;0.70;;;18.00;99.90;;;;;;5056131;28;20033;-85
2024/04/04 10:44:19;;;;;;;3.70;0.90;;;18.00;99.90;;;;;;5056809;28;20036;-82
2024/04/04 10:46:52;;;;;;;4.22;0.98;;;17.90;99.90;;;;;;5052680;28;20032;-83
2024/04/04 10:49:19;;;;;;;4.07;0.90;;;17.70;99.90;;;;;;5056624;28;20032;-84
2024/04/04 10:51:52;;;;;;;3.42;0.90;;;17.70;99.90;;;;;;5057226;28;20041;-86
2024/04/04 10:54:18;;;;;;;2.35;0.90;;;17.50;99.90;;;;;;5055920;28;20029;-84
2024/04/04 10:56:47;;;;;;;2.15;1.00;;;17.40;99.90;;;;;;5057292;28;20048;-83
2024/04/04 10:59:17;;;;;;;3.95;1.00;;;17.30;99.90;;;;;;5059662;28;20125;-83
2024/04/04 11:01:47;;;;;;;2.47;0.75;;;17.20;99.90;;;;;;5058556;28;20037;-83
2024/04/04 11:04:14;;;;;;;3.88;1.15;;;17.20;99.90;;;;;;5058636;28;20108;-84
2024/04/04 11:06:40;;;;;;;2.58;0.80;;;17.30;99.90;;;;;;5057141;28;20021;-84
2024/04/04 11:09:16;;;;;;;2.92;0.90;;;17.30;99.90;;;;;;5058001;28;20032;-83
2024/04/04 11:12:00;;;;;;;4.40;1.20;;;17.40;99.90;;;;;;5057006;28;20120;-85
2024/04/04 11:14:26;;;;;;;3.17;0.98;;;17.50;99.90;;;;;;5056557;28;20787;-83
2024/04/04 11:16:54;;;;;;;2.47;0.90;;;17.50;99.90;;;;;;5057414;28;20056;-83
2024/04/04 11:19:23;;;;;;;4.82;0.88;;;17.50;99.90;;;;;;5057583;28;20039;-84
2024/04/04 11:21:50;;;;;;;3.00;1.02;;;17.40;99.90;;;;;;5057618;28;20025;-85
2024/04/04 11:24:16;;;;;;;4.97;1.00;;;17.20;99.90;;;;;;5057028;28;20025;-83
2024/04/04 11:26:42;;;;;;;2.40;0.82;;;17.10;99.90;;;;;;5059556;28;20017;-84
2024/04/04 11:29:09;;;;;;;3.75;0.90;;;17.20;99.90;;;;;;5060744;28;20036;-86
2024/04/04 11:31:35;;;;;;;2.17;1.00;;;17.10;99.90;;;;;;5060270;28;20060;-83
2024/04/04 11:34:00;;;;;;;3.60;1.55;;;17.20;99.90;;;;;;5061679;28;20048;-85
2024/04/04 11:36:26;;;;;;;1.95;0.70;;;17.10;99.90;;;;;;5059406;28;20494;-85
2024/04/04 11:38:51;;;;;;;1.42;0.77;;;17.20;99.90;;;;;;5060765;28;20029;-84
2024/04/04 11:41:17;;;;;;;1.25;0.70;;;17.10;99.90;;;;;;5059860;28;20403;-84
2024/04/04 11:43:42;;;;;;;3.72;1.00;;;17.00;99.90;;;;;;5061521;28;20029;-86
2024/04/04 11:46:12;;;;;;;2.45;0.88;;;16.90;99.90;;;;;;5055051;28;20565;-80
2024/04/04 11:48:40;;;;;;;5.15;0.80;;;16.80;99.90;;;;;;5058631;28;20020;-80
2024/04/04 11:51:06;;;;;;;3.25;0.98;;;16.80;99.90;;;;;;5059946;28;20338;-80
2024/04/04 11:53:31;;;;;;;5.10;0.90;;;16.70;99.90;;;;;;5057251;28;20032;-80
2024/04/04 11:55:57;;;;;;;3.60;0.98;;;16.60;99.90;;;;;;5057615;28;20036;-80
2024/04/04 11:58:26;;;;;;;2.42;0.98;;;16.60;99.90;;;;;;5058451;28;20090;-81
2024/04/04 12:00:55;;;;;;;5.90;1.13;;;16.60;99.90;;;;;;5058573;28;20031;-81
2024/04/04 12:03:20;;;;;;;3.55;1.10;;;16.60;99.90;;;;;;5057446;28;21366;-81
2024/04/04 12:05:46;;;;;;;3.05;0.85;;;16.60;99.90;;;;;;5055450;28;20085;-81
2024/04/04 12:08:12;;;;;;;2.00;0.98;;;16.60;99.90;;;;;;5058431;28;20596;-80
2024/04/04 12:10:37;;;;;;;3.88;1.00;;;16.50;99.90;;;;;;5060618;28;20055;-86
2024/04/04 12:13:03;;;;;;;2.67;0.90;;;16.60;99.90;;;;;;5058294;28;20489;-85
2024/04/04 12:15:30;;;;;;;2.13;0.90;;;16.70;99.90;;;;;;5059437;28;20036;-87
2024/04/04 12:20:41;;;;;;;3.53;1.02;;;17.10;99.90;;;;;;5055777;28;20179;-86
2024/04/04 12:23:07;;;;;;;3.65;1.10;;;17.30;99.90;;;;;;5055299;28;20025;-86
2024/04/04 12:25:32;;;;;;;1.80;0.88;;;17.50;99.90;;;;;;5054814;28;20070;-86
2024/04/04 12:27:59;;;;;;;2.35;0.80;;;17.60;99.90;;;;;;5058596;28;20114;-87
2024/04/04 12:30:25;;;;;;;5.53;1.02;;;17.60;99.90;;;;;;5062171;28;20024;-87
2024/04/04 12:32:50;;;;;;;1.50;0.80;;;17.60;99.90;;;;;;5062820;28;20040;-87
2024/04/04 12:35:16;;;;;;;3.67;1.00;;;17.50;99.90;;;;;;5061486;28;20100;-86
2024/04/04 12:37:41;;;;;;;5.60;0.90;;;17.40;99.90;;;;;;5063808;28;21397;-87
2024/04/04 12:40:07;;;;;;;3.67;0.85;;;17.30;99.90;;;;;;5063791;28;20496;-87
2024/04/04 12:42:33;;;;;;;3.28;0.98;;;17.30;99.90;;;;;;5065452;28;20025;-87
2024/04/04 12:44:58;;;;;;;3.03;1.00;;;17.30;99.90;;;;;;5065671;28;20153;-86
2024/04/04 12:47:24;;;;;;;1.98;0.90;;;17.30;99.90;;;;;;5061299;28;20121;-86